sensor_id;sensor_type;location;lat;lon;timestamp;P1;durP1;ratioP1;P2;durP2;ratioP2
70558;SDS011;58108;48.094;11.838;2022-09-09T00:00:16;2.50;;;0.50;;
70558;SDS011;58108;48.094;11.838;2022-09-09T00:02:51;3.28;;;0.70;;
70558;SDS011;58108;48.094;11.838;2022-09-09T00:05:28;4.10;;;0.90;;
70558;SDS011;58108;48.094;11.838;2022-09-09T00:08:00;3.30;;;0.75;;
70558;SDS011;58108;48.094;11.838;2022-09-09T00:10:38;2.95;;;0.90;;
70558;SDS011;58108;48.094;11.838;2022-09-09T00:23:25;3.47;;;0.80;;
70558;SDS011;58108;48.094;11.838;2022-09-09T00:25:57;2.85;;;0.73;;
70558;SDS011;58108;48.094;11.838;2022-09-09T00:28:30;3.67;;;0.97;;
70558;SDS011;58108;48.094;11.838;2022-09-09T00:30:59;3.65;;;0.80;;
70558;SDS011;58108;48.094;11.838;2022-09-09T00:33:35;3.13;;;1.00;;
70558;SDS011;58108;48.094;11.838;2022-09-09T00:36:01;3.40;;;0.70;;
70558;SDS011;58108;48.094;11.838;2022-09-09T00:38:35;3.50;;;0.90;;
70558;SDS011;58108;48.094;11.838;2022-09-09T00:43:58;3.00;;;0.82;;
70558;SDS011;58108;48.094;11.838;2022-09-09T00:49:07;2.40;;;0.87;;
70558;SDS011;58108;48.094;11.838;2022-09-09T00:51:51;4.47;;;0.80;;
70558;SDS011;58108;48.094;11.838;2022-09-09T00:59:43;2.50;;;1.05;;
70558;SDS011;58108;48.094;11.838;2022-09-09T01:05:12;4.57;;;1.00;;
70558;SDS011;58108;48.094;11.838;2022-09-09T01:07:45;3.55;;;1.02;;
70558;SDS011;58108;48.094;11.838;2022-09-09T01:10:17;2.78;;;0.90;;
70558;SDS011;58108;48.094;11.838;2022-09-09T01:12:52;3.90;;;0.90;;
70558;SDS011;58108;48.094;11.838;2022-09-09T01:15:22;2.23;;;0.70;;
70558;SDS011;58108;48.094;11.838;2022-09-09T01:28:50;2.00;;;0.77;;
70558;SDS011;58108;48.094;11.838;2022-09-09T01:31:23;2.30;;;0.73;;
70558;SDS011;58108;48.094;11.838;2022-09-09T01:33:53;3.25;;;0.90;;
70558;SDS011;58108;48.094;11.838;2022-09-09T01:36:26;4.07;;;0.83;;
70558;SDS011;58108;48.094;11.838;2022-09-09T01:39:00;3.22;;;0.80;;
70558;SDS011;58108;48.094;11.838;2022-09-09T01:41:26;3.42;;;0.90;;
70558;SDS011;58108;48.094;11.838;2022-09-09T01:43:52;2.90;;;0.80;;
70558;SDS011;58108;48.094;11.838;2022-09-09T01:46:20;6.47;;;1.20;;
70558;SDS011;58108;48.094;11.838;2022-09-09T01:48:47;2.25;;;1.00;;
70558;SDS011;58108;48.094;11.838;2022-09-09T01:51:13;4.30;;;0.90;;
70558;SDS011;58108;48.094;11.838;2022-09-09T01:53:39;3.10;;;0.80;;
70558;SDS011;58108;48.094;11.838;2022-09-09T01:58:48;2.90;;;0.90;;
70558;SDS011;58108;48.094;11.838;2022-09-09T02:01:31;2.58;;;0.77;;
70558;SDS011;58108;48.094;11.838;2022-09-09T02:04:18;2.20;;;0.70;;
70558;SDS011;58108;48.094;11.838;2022-09-09T02:07:30;4.87;;;0.90;;
70558;SDS011;58108;48.094;11.838;2022-09-09T02:09:57;5.22;;;0.80;;
70558;SDS011;58108;48.094;11.838;2022-09-09T02:12:46;2.85;;;0.85;;
70558;SDS011;58108;48.094;11.838;2022-09-09T02:18:04;3.95;;;0.80;;
70558;SDS011;58108;48.094;11.838;2022-09-09T02:20:33;2.27;;;0.73;;
70558;SDS011;58108;48.094;11.838;2022-09-09T02:23:01;3.55;;;0.93;;
70558;SDS011;58108;48.094;11.838;2022-09-09T02:25:28;2.25;;;0.80;;
70558;SDS011;58108;48.094;11.838;2022-09-09T02:27:57;2.80;;;0.90;;
70558;SDS011;58108;48.094;11.838;2022-09-09T02:30:26;4.45;;;0.85;;
70558;SDS011;58108;48.094;11.838;2022-09-09T02:32:56;3.37;;;0.80;;
70558;SDS011;58108;48.094;11.838;2022-09-09T02:35:23;3.50;;;0.90;;
70558;SDS011;58108;48.094;11.838;2022-09-09T02:37:51;3.55;;;0.70;;
70558;SDS011;58108;48.094;11.838;2022-09-09T02:40:20;5.28;;;0.80;;
70558;SDS011;58108;48.094;11.838;2022-09-09T02:42:46;3.45;;;1.00;;
70558;SDS011;58108;48.094;11.838;2022-09-09T02:45:14;3.13;;;0.73;;
70558;SDS011;58108;48.094;11.838;2022-09-09T02:50:33;4.28;;;0.80;;
70558;SDS011;58108;48.094;11.838;2022-09-09T02:53:07;3.60;;;0.80;;
70558;SDS011;58108;48.094;11.838;2022-09-09T02:55:45;3.53;;;0.90;;
70558;SDS011;58108;48.094;11.838;2022-09-09T02:58:16;3.47;;;0.70;;
70558;SDS011;58108;48.094;11.838;2022-09-09T03:00:44;2.53;;;0.70;;
70558;SDS011;58108;48.094;11.838;2022-09-09T03:03:11;3.97;;;0.98;;
70558;SDS011;58108;48.094;11.838;2022-09-09T03:05:37;5.05;;;0.90;;
70558;SDS011;58108;48.094;11.838;2022-09-09T03:08:03;3.37;;;0.70;;
70558;SDS011;58108;48.094;11.838;2022-09-09T03:10:30;2.35;;;0.70;;
70558;SDS011;58108;48.094;11.838;2022-09-09T03:12:55;2.17;;;0.70;;
70558;SDS011;58108;48.094;11.838;2022-09-09T03:15:21;2.27;;;0.70;;
70558;SDS011;58108;48.094;11.838;2022-09-09T03:17:46;1.90;;;0.50;;
70558;SDS011;58108;48.094;11.838;2022-09-09T03:20:12;3.37;;;1.03;;
70558;SDS011;58108;48.094;11.838;2022-09-09T03:22:37;3.33;;;1.10;;
70558;SDS011;58108;48.094;11.838;2022-09-09T03:25:02;2.97;;;0.70;;
70558;SDS011;58108;48.094;11.838;2022-09-09T03:27:28;2.53;;;0.67;;
70558;SDS011;58108;48.094;11.838;2022-09-09T03:29:54;3.10;;;0.60;;
70558;SDS011;58108;48.094;11.838;2022-09-09T03:32:19;2.40;;;0.52;;
70558;SDS011;58108;48.094;11.838;2022-09-09T03:34:47;1.80;;;0.57;;
70558;SDS011;58108;48.094;11.838;2022-09-09T03:37:14;1.98;;;0.60;;
70558;SDS011;58108;48.094;11.838;2022-09-09T03:39:40;2.78;;;0.60;;
70558;SDS011;58108;48.094;11.838;2022-09-09T03:42:06;1.80;;;0.50;;
70558;SDS011;58108;48.094;11.838;2022-09-09T03:44:31;2.33;;;0.60;;
70558;SDS011;58108;48.094;11.838;2022-09-09T03:46:56;1.70;;;0.60;;
70558;SDS011;58108;48.094;11.838;2022-09-09T03:49:21;2.10;;;0.60;;
70558;SDS011;58108;48.094;11.838;2022-09-09T03:51:47;2.00;;;0.47;;
70558;SDS011;58108;48.094;11.838;2022-09-09T03:54:13;2.47;;;0.40;;
70558;SDS011;58108;48.094;11.838;2022-09-09T03:56:38;3.40;;;0.60;;
70558;SDS011;58108;48.094;11.838;2022-09-09T03:59:06;2.17;;;0.50;;
70558;SDS011;58108;48.094;11.838;2022-09-09T04:01:31;2.03;;;0.63;;
70558;SDS011;58108;48.094;11.838;2022-09-09T04:03:56;2.93;;;0.60;;
70558;SDS011;58108;48.094;11.838;2022-09-09T04:06:23;2.63;;;0.50;;
70558;SDS011;58108;48.094;11.838;2022-09-09T04:08:49;3.55;;;0.77;;
70558;SDS011;58108;48.094;11.838;2022-09-09T04:11:14;4.23;;;0.73;;
70558;SDS011;58108;48.094;11.838;2022-09-09T04:13:41;2.80;;;0.70;;
70558;SDS011;58108;48.094;11.838;2022-09-09T04:16:07;2.20;;;0.50;;
70558;SDS011;58108;48.094;11.838;2022-09-09T04:18:35;2.63;;;0.77;;
70558;SDS011;58108;48.094;11.838;2022-09-09T04:21:01;2.08;;;0.50;;
70558;SDS011;58108;48.094;11.838;2022-09-09T04:23:27;3.40;;;0.87;;
70558;SDS011;58108;48.094;11.838;2022-09-09T04:25:54;2.95;;;1.00;;
70558;SDS011;58108;48.094;11.838;2022-09-09T04:28:22;2.15;;;0.70;;
70558;SDS011;58108;48.094;11.838;2022-09-09T04:30:49;2.63;;;0.80;;
70558;SDS011;58108;48.094;11.838;2022-09-09T04:33:14;2.60;;;1.00;;
70558;SDS011;58108;48.094;11.838;2022-09-09T04:35:47;4.77;;;1.00;;
70558;SDS011;58108;48.094;11.838;2022-09-09T04:38:14;2.70;;;0.90;;
70558;SDS011;58108;48.094;11.838;2022-09-09T04:40:43;2.65;;;1.10;;
70558;SDS011;58108;48.094;11.838;2022-09-09T04:43:11;2.35;;;1.00;;
70558;SDS011;58108;48.094;11.838;2022-09-09T04:45:36;2.00;;;0.70;;
70558;SDS011;58108;48.094;11.838;2022-09-09T04:48:02;3.50;;;0.80;;
70558;SDS011;58108;48.094;11.838;2022-09-09T04:50:27;2.10;;;0.60;;
70558;SDS011;58108;48.094;11.838;2022-09-09T04:52:53;2.10;;;0.50;;
70558;SDS011;58108;48.094;11.838;2022-09-09T04:55:18;3.30;;;0.53;;
70558;SDS011;58108;48.094;11.838;2022-09-09T04:57:44;3.47;;;0.60;;
70558;SDS011;58108;48.094;11.838;2022-09-09T05:00:09;3.47;;;0.67;;
70558;SDS011;58108;48.094;11.838;2022-09-09T05:02:38;2.75;;;0.60;;
70558;SDS011;58108;48.094;11.838;2022-09-09T05:05:04;3.92;;;0.75;;
70558;SDS011;58108;48.094;11.838;2022-09-09T05:07:30;3.08;;;0.65;;
70558;SDS011;58108;48.094;11.838;2022-09-09T05:09:56;2.90;;;0.60;;
70558;SDS011;58108;48.094;11.838;2022-09-09T05:12:21;3.00;;;0.80;;
70558;SDS011;58108;48.094;11.838;2022-09-09T05:14:48;2.50;;;0.70;;
70558;SDS011;58108;48.094;11.838;2022-09-09T05:17:13;3.33;;;0.70;;
70558;SDS011;58108;48.094;11.838;2022-09-09T05:19:40;2.40;;;0.80;;
70558;SDS011;58108;48.094;11.838;2022-09-09T05:22:05;2.20;;;0.80;;
70558;SDS011;58108;48.094;11.838;2022-09-09T05:24:30;2.77;;;0.60;;
70558;SDS011;58108;48.094;11.838;2022-09-09T05:26:58;3.42;;;0.90;;
70558;SDS011;58108;48.094;11.838;2022-09-09T05:29:24;1.80;;;0.50;;
70558;SDS011;58108;48.094;11.838;2022-09-09T05:31:51;2.58;;;0.57;;
70558;SDS011;58108;48.094;11.838;2022-09-09T05:34:16;2.33;;;0.40;;
70558;SDS011;58108;48.094;11.838;2022-09-09T05:36:42;3.17;;;0.67;;
70558;SDS011;58108;48.094;11.838;2022-09-09T05:39:07;2.57;;;0.70;;
70558;SDS011;58108;48.094;11.838;2022-09-09T05:41:32;2.70;;;0.50;;
70558;SDS011;58108;48.094;11.838;2022-09-09T05:43:58;1.80;;;0.70;;
70558;SDS011;58108;48.094;11.838;2022-09-09T05:46:26;4.07;;;0.80;;
70558;SDS011;58108;48.094;11.838;2022-09-09T05:48:52;2.23;;;0.50;;
70558;SDS011;58108;48.094;11.838;2022-09-09T05:51:22;4.88;;;0.85;;
70558;SDS011;58108;48.094;11.838;2022-09-09T05:53:49;2.92;;;1.33;;
70558;SDS011;58108;48.094;11.838;2022-09-09T05:56:17;5.05;;;1.95;;
70558;SDS011;58108;48.094;11.838;2022-09-09T05:58:44;3.77;;;1.30;;
70558;SDS011;58108;48.094;11.838;2022-09-09T06:01:15;2.75;;;1.00;;
70558;SDS011;58108;48.094;11.838;2022-09-09T06:03:43;2.03;;;0.50;;
70558;SDS011;58108;48.094;11.838;2022-09-09T06:06:10;2.38;;;0.80;;
70558;SDS011;58108;48.094;11.838;2022-09-09T06:08:38;1.80;;;0.50;;
70558;SDS011;58108;48.094;11.838;2022-09-09T06:11:06;1.90;;;0.50;;
70558;SDS011;58108;48.094;11.838;2022-09-09T06:13:34;3.80;;;0.60;;
70558;SDS011;58108;48.094;11.838;2022-09-09T06:16:00;2.08;;;0.55;;
70558;SDS011;58108;48.094;11.838;2022-09-09T06:18:26;3.50;;;0.60;;
70558;SDS011;58108;48.094;11.838;2022-09-09T06:21:01;1.93;;;0.50;;
70558;SDS011;58108;48.094;11.838;2022-09-09T06:23:31;2.95;;;0.45;;
70558;SDS011;58108;48.094;11.838;2022-09-09T06:26:07;5.30;;;0.40;;
70558;SDS011;58108;48.094;11.838;2022-09-09T06:28:35;1.97;;;0.40;;
70558;SDS011;58108;48.094;11.838;2022-09-09T06:31:02;2.47;;;0.32;;
70558;SDS011;58108;48.094;11.838;2022-09-09T06:33:36;1.83;;;0.57;;
70558;SDS011;58108;48.094;11.838;2022-09-09T06:36:06;2.83;;;0.50;;
70558;SDS011;58108;48.094;11.838;2022-09-09T06:38:35;1.80;;;0.40;;
70558;SDS011;58108;48.094;11.838;2022-09-09T06:41:00;2.37;;;0.50;;
70558;SDS011;58108;48.094;11.838;2022-09-09T06:43:26;1.77;;;0.30;;
70558;SDS011;58108;48.094;11.838;2022-09-09T06:45:55;3.20;;;0.30;;
70558;SDS011;58108;48.094;11.838;2022-09-09T06:48:21;1.83;;;0.37;;
70558;SDS011;58108;48.094;11.838;2022-09-09T06:50:46;1.67;;;0.30;;
70558;SDS011;58108;48.094;11.838;2022-09-09T06:53:12;1.57;;;0.40;;
70558;SDS011;58108;48.094;11.838;2022-09-09T06:55:41;2.38;;;0.40;;
70558;SDS011;58108;48.094;11.838;2022-09-09T06:58:09;1.53;;;0.30;;
70558;SDS011;58108;48.094;11.838;2022-09-09T07:00:34;3.30;;;0.30;;
70558;SDS011;58108;48.094;11.838;2022-09-09T07:03:02;3.20;;;0.30;;
70558;SDS011;58108;48.094;11.838;2022-09-09T07:05:28;1.40;;;0.30;;
70558;SDS011;58108;48.094;11.838;2022-09-09T07:07:53;1.40;;;0.20;;
70558;SDS011;58108;48.094;11.838;2022-09-09T07:10:18;2.40;;;0.30;;
70558;SDS011;58108;48.094;11.838;2022-09-09T07:12:44;2.03;;;0.30;;
70558;SDS011;58108;48.094;11.838;2022-09-09T07:15:09;3.30;;;0.40;;
70558;SDS011;58108;48.094;11.838;2022-09-09T07:17:36;2.08;;;0.30;;
70558;SDS011;58108;48.094;11.838;2022-09-09T07:20:01;2.47;;;0.30;;
70558;SDS011;58108;48.094;11.838;2022-09-09T07:22:28;1.92;;;0.40;;
70558;SDS011;58108;48.094;11.838;2022-09-09T07:24:54;1.70;;;0.40;;
70558;SDS011;58108;48.094;11.838;2022-09-09T07:27:19;2.73;;;0.50;;
70558;SDS011;58108;48.094;11.838;2022-09-09T07:29:44;1.53;;;0.30;;
70558;SDS011;58108;48.094;11.838;2022-09-09T07:32:10;4.03;;;0.20;;
70558;SDS011;58108;48.094;11.838;2022-09-09T07:34:36;2.03;;;0.50;;
70558;SDS011;58108;48.094;11.838;2022-09-09T07:37:01;1.33;;;0.33;;
70558;SDS011;58108;48.094;11.838;2022-09-09T07:39:27;1.50;;;0.30;;
70558;SDS011;58108;48.094;11.838;2022-09-09T07:41:52;2.13;;;0.30;;
70558;SDS011;58108;48.094;11.838;2022-09-09T07:44:20;1.63;;;0.32;;
70558;SDS011;58108;48.094;11.838;2022-09-09T07:46:47;1.52;;;0.20;;
70558;SDS011;58108;48.094;11.838;2022-09-09T07:49:12;2.00;;;0.30;;
70558;SDS011;58108;48.094;11.838;2022-09-09T07:51:40;2.25;;;0.38;;
70558;SDS011;58108;48.094;11.838;2022-09-09T07:54:11;1.30;;;0.30;;
70558;SDS011;58108;48.094;11.838;2022-09-09T07:56:38;2.40;;;0.30;;
70558;SDS011;58108;48.094;11.838;2022-09-09T07:59:04;1.80;;;0.40;;
70558;SDS011;58108;48.094;11.838;2022-09-09T08:01:35;1.75;;;0.38;;
70558;SDS011;58108;48.094;11.838;2022-09-09T08:04:05;3.55;;;0.50;;
70558;SDS011;58108;48.094;11.838;2022-09-09T08:06:34;2.95;;;0.70;;
70558;SDS011;58108;48.094;11.838;2022-09-09T08:09:04;3.63;;;0.40;;
70558;SDS011;58108;48.094;11.838;2022-09-09T08:11:32;1.65;;;0.30;;
70558;SDS011;58108;48.094;11.838;2022-09-09T08:13:58;2.40;;;0.50;;
70558;SDS011;58108;48.094;11.838;2022-09-09T08:16:25;1.60;;;0.30;;
70558;SDS011;58108;48.094;11.838;2022-09-09T08:18:53;1.60;;;0.33;;
70558;SDS011;58108;48.094;11.838;2022-09-09T08:21:22;1.77;;;0.30;;
70558;SDS011;58108;48.094;11.838;2022-09-09T08:23:53;2.35;;;0.40;;
70558;SDS011;58108;48.094;11.838;2022-09-09T08:26:20;2.20;;;0.32;;
70558;SDS011;58108;48.094;11.838;2022-09-09T08:28:51;2.10;;;0.30;;
70558;SDS011;58108;48.094;11.838;2022-09-09T08:31:19;1.50;;;0.40;;
70558;SDS011;58108;48.094;11.838;2022-09-09T08:33:48;2.70;;;0.40;;
70558;SDS011;58108;48.094;11.838;2022-09-09T08:36:15;1.77;;;0.35;;
70558;SDS011;58108;48.094;11.838;2022-09-09T08:38:42;2.28;;;0.30;;
70558;SDS011;58108;48.094;11.838;2022-09-09T08:44:03;1.60;;;0.30;;
70558;SDS011;58108;48.094;11.838;2022-09-09T08:46:56;2.17;;;0.40;;
70558;SDS011;58108;48.094;11.838;2022-09-09T08:52:01;1.73;;;0.30;;
70558;SDS011;58108;48.094;11.838;2022-09-09T08:54:32;1.40;;;0.30;;
70558;SDS011;58108;48.094;11.838;2022-09-09T08:56:59;2.78;;;0.30;;
70558;SDS011;58108;48.094;11.838;2022-09-09T08:59:24;2.73;;;0.40;;
70558;SDS011;58108;48.094;11.838;2022-09-09T09:07:24;1.90;;;0.40;;
70558;SDS011;58108;48.094;11.838;2022-09-09T09:10:09;2.22;;;0.30;;
70558;SDS011;58108;48.094;11.838;2022-09-09T09:12:40;2.30;;;0.40;;
70558;SDS011;58108;48.094;11.838;2022-09-09T09:15:11;2.30;;;0.50;;
70558;SDS011;58108;48.094;11.838;2022-09-09T09:17:43;1.80;;;0.20;;
70558;SDS011;58108;48.094;11.838;2022-09-09T09:20:12;2.37;;;0.40;;
70558;SDS011;58108;48.094;11.838;2022-09-09T09:22:44;2.00;;;0.30;;
70558;SDS011;58108;48.094;11.838;2022-09-09T09:25:18;1.67;;;0.30;;
70558;SDS011;58108;48.094;11.838;2022-09-09T09:30:39;2.45;;;0.40;;
70558;SDS011;58108;48.094;11.838;2022-09-09T09:33:41;1.48;;;0.30;;
70558;SDS011;58108;48.094;11.838;2022-09-09T09:36:05;2.90;;;0.40;;
70558;SDS011;58108;48.094;11.838;2022-09-09T09:38:33;1.30;;;0.30;;
70558;SDS011;58108;48.094;11.838;2022-09-09T09:40:59;2.10;;;0.50;;
70558;SDS011;58108;48.094;11.838;2022-09-09T09:43:35;1.97;;;0.50;;
70558;SDS011;58108;48.094;11.838;2022-09-09T09:46:05;2.30;;;0.38;;
70558;SDS011;58108;48.094;11.838;2022-09-09T09:48:44;2.15;;;0.43;;
70558;SDS011;58108;48.094;11.838;2022-09-09T09:51:12;1.55;;;0.30;;
70558;SDS011;58108;48.094;11.838;2022-09-09T09:53:40;2.75;;;0.40;;
70558;SDS011;58108;48.094;11.838;2022-09-09T09:56:10;3.13;;;0.40;;
70558;SDS011;58108;48.094;11.838;2022-09-09T10:01:27;2.50;;;0.20;;
70558;SDS011;58108;48.094;11.838;2022-09-09T10:04:00;1.60;;;0.35;;
70558;SDS011;58108;48.094;11.838;2022-09-09T10:06:36;2.55;;;0.43;;
70558;SDS011;58108;48.094;11.838;2022-09-09T10:14:48;2.63;;;0.40;;
70558;SDS011;58108;48.094;11.838;2022-09-09T10:17:36;1.27;;;0.22;;
70558;SDS011;58108;48.094;11.838;2022-09-09T10:20:21;1.92;;;0.30;;
70558;SDS011;58108;48.094;11.838;2022-09-09T10:28:22;1.57;;;0.30;;
70558;SDS011;58108;48.094;11.838;2022-09-09T10:36:39;2.03;;;0.30;;
70558;SDS011;58108;48.094;11.838;2022-09-09T10:42:14;1.73;;;0.30;;
70558;SDS011;58108;48.094;11.838;2022-09-09T10:50:28;1.55;;;0.30;;
70558;SDS011;58108;48.094;11.838;2022-09-09T10:53:24;1.90;;;0.50;;
70558;SDS011;58108;48.094;11.838;2022-09-09T10:56:11;2.05;;;0.50;;
70558;SDS011;58108;48.094;11.838;2022-09-09T11:01:21;4.03;;;0.30;;
70558;SDS011;58108;48.094;11.838;2022-09-09T11:04:38;2.05;;;0.40;;
70558;SDS011;58108;48.094;11.838;2022-09-09T11:06:44;2.63;;;0.30;;
70558;SDS011;58108;48.094;11.838;2022-09-09T11:09:17;2.70;;;0.40;;
70558;SDS011;58108;48.094;11.838;2022-09-09T11:11:50;3.17;;;0.50;;
70558;SDS011;58108;48.094;11.838;2022-09-09T11:17:20;2.20;;;0.35;;
70558;SDS011;58108;48.094;11.838;2022-09-09T11:19:51;2.05;;;0.30;;
70558;SDS011;58108;48.094;11.838;2022-09-09T11:24:59;1.95;;;0.38;;
70558;SDS011;58108;48.094;11.838;2022-09-09T11:27:50;1.48;;;0.35;;
70558;SDS011;58108;48.094;11.838;2022-09-09T11:35:58;2.10;;;0.40;;
70558;SDS011;58108;48.094;11.838;2022-09-09T11:38:31;1.60;;;0.20;;
70558;SDS011;58108;48.094;11.838;2022-09-09T11:41:05;1.40;;;0.13;;
70558;SDS011;58108;48.094;11.838;2022-09-09T11:43:47;1.67;;;0.17;;
70558;SDS011;58108;48.094;11.838;2022-09-09T11:46:19;1.00;;;0.10;;
70558;SDS011;58108;48.094;11.838;2022-09-09T11:48:58;1.02;;;0.20;;
70558;SDS011;58108;48.094;11.838;2022-09-09T11:51:26;1.10;;;0.20;;
70558;SDS011;58108;48.094;11.838;2022-09-09T11:53:54;0.80;;;0.10;;
70558;SDS011;58108;48.094;11.838;2022-09-09T11:56:32;1.73;;;0.20;;
70558;SDS011;58108;48.094;11.838;2022-09-09T11:59:19;0.80;;;0.10;;
70558;SDS011;58108;48.094;11.838;2022-09-09T12:04:54;0.70;;;0.10;;
70558;SDS011;58108;48.094;11.838;2022-09-09T12:07:31;1.20;;;0.10;;
70558;SDS011;58108;48.094;11.838;2022-09-09T12:10:33;0.90;;;0.10;;
70558;SDS011;58108;48.094;11.838;2022-09-09T12:12:53;0.80;;;0.10;;
70558;SDS011;58108;48.094;11.838;2022-09-09T12:15:20;0.90;;;0.17;;
70558;SDS011;58108;48.094;11.838;2022-09-09T12:17:51;1.27;;;0.10;;
70558;SDS011;58108;48.094;11.838;2022-09-09T12:28:18;2.05;;;0.10;;
70558;SDS011;58108;48.094;11.838;2022-09-09T12:33:42;0.85;;;0.10;;
70558;SDS011;58108;48.094;11.838;2022-09-09T12:36:29;1.40;;;0.10;;
70558;SDS011;58108;48.094;11.838;2022-09-09T12:38:56;1.30;;;0.22;;
70558;SDS011;58108;48.094;11.838;2022-09-09T12:41:35;1.73;;;0.57;;
70558;SDS011;58108;48.094;11.838;2022-09-09T12:44:04;1.20;;;0.20;;
70558;SDS011;58108;48.094;11.838;2022-09-09T12:46:43;0.93;;;0.20;;
70558;SDS011;58108;48.094;11.838;2022-09-09T12:52:00;0.70;;;0.10;;
70558;SDS011;58108;48.094;11.838;2022-09-09T12:54:27;1.02;;;0.10;;
70558;SDS011;58108;48.094;11.838;2022-09-09T12:56:53;1.07;;;0.20;;
70558;SDS011;58108;48.094;11.838;2022-09-09T12:59:23;0.70;;;0.00;;
70558;SDS011;58108;48.094;11.838;2022-09-09T13:01:57;0.60;;;0.10;;
70558;SDS011;58108;48.094;11.838;2022-09-09T13:04:23;0.82;;;0.10;;
70558;SDS011;58108;48.094;11.838;2022-09-09T13:06:48;2.37;;;0.10;;
70558;SDS011;58108;48.094;11.838;2022-09-09T13:09:14;1.90;;;0.10;;
70558;SDS011;58108;48.094;11.838;2022-09-09T13:11:41;1.00;;;0.10;;
70558;SDS011;58108;48.094;11.838;2022-09-09T13:14:18;0.93;;;0.10;;
70558;SDS011;58108;48.094;11.838;2022-09-09T13:16:57;0.90;;;0.10;;
70558;SDS011;58108;48.094;11.838;2022-09-09T13:19:25;1.53;;;0.20;;
70558;SDS011;58108;48.094;11.838;2022-09-09T13:21:52;1.30;;;0.10;;
70558;SDS011;58108;48.094;11.838;2022-09-09T13:24:26;1.15;;;0.10;;
70558;SDS011;58108;48.094;11.838;2022-09-09T13:26:58;1.63;;;0.10;;
70558;SDS011;58108;48.094;11.838;2022-09-09T13:29:28;1.13;;;0.20;;
70558;SDS011;58108;48.094;11.838;2022-09-09T13:32:05;1.73;;;0.20;;
70558;SDS011;58108;48.094;11.838;2022-09-09T13:34:34;1.05;;;0.10;;
70558;SDS011;58108;48.094;11.838;2022-09-09T13:37:09;2.03;;;0.20;;
70558;SDS011;58108;48.094;11.838;2022-09-09T13:39:50;1.23;;;0.10;;
70558;SDS011;58108;48.094;11.838;2022-09-09T13:42:25;1.20;;;0.10;;
70558;SDS011;58108;48.094;11.838;2022-09-09T13:44:52;1.05;;;0.10;;
70558;SDS011;58108;48.094;11.838;2022-09-09T13:47:21;2.05;;;0.20;;
70558;SDS011;58108;48.094;11.838;2022-09-09T13:49:54;1.35;;;0.10;;
70558;SDS011;58108;48.094;11.838;2022-09-09T13:52:19;0.90;;;0.10;;
70558;SDS011;58108;48.094;11.838;2022-09-09T13:54:48;1.07;;;0.10;;
70558;SDS011;58108;48.094;11.838;2022-09-09T13:57:15;1.58;;;0.20;;
70558;SDS011;58108;48.094;11.838;2022-09-09T13:59:43;2.33;;;0.20;;
70558;SDS011;58108;48.094;11.838;2022-09-09T14:02:09;1.83;;;0.13;;
70558;SDS011;58108;48.094;11.838;2022-09-09T14:04:35;1.00;;;0.20;;
70558;SDS011;58108;48.094;11.838;2022-09-09T14:07:00;1.70;;;0.20;;
70558;SDS011;58108;48.094;11.838;2022-09-09T14:09:26;1.02;;;0.10;;
70558;SDS011;58108;48.094;11.838;2022-09-09T14:11:52;1.13;;;0.10;;
70558;SDS011;58108;48.094;11.838;2022-09-09T14:14:17;0.90;;;0.10;;
70558;SDS011;58108;48.094;11.838;2022-09-09T14:16:42;1.30;;;0.20;;
70558;SDS011;58108;48.094;11.838;2022-09-09T14:19:08;1.60;;;0.10;;
70558;SDS011;58108;48.094;11.838;2022-09-09T14:21:34;1.65;;;0.20;;
70558;SDS011;58108;48.094;11.838;2022-09-09T14:23:59;1.43;;;0.10;;
70558;SDS011;58108;48.094;11.838;2022-09-09T14:26:25;1.33;;;0.10;;
70558;SDS011;58108;48.094;11.838;2022-09-09T14:28:51;1.35;;;0.28;;
70558;SDS011;58108;48.094;11.838;2022-09-09T14:31:17;2.08;;;0.10;;
70558;SDS011;58108;48.094;11.838;2022-09-09T14:33:43;1.20;;;0.13;;
70558;SDS011;58108;48.094;11.838;2022-09-09T14:36:09;1.30;;;0.10;;
70558;SDS011;58108;48.094;11.838;2022-09-09T14:38:35;1.73;;;0.30;;
70558;SDS011;58108;48.094;11.838;2022-09-09T14:41:06;1.85;;;0.17;;
70558;SDS011;58108;48.094;11.838;2022-09-09T14:43:34;1.73;;;0.20;;
70558;SDS011;58108;48.094;11.838;2022-09-09T14:46:06;0.90;;;0.10;;
70558;SDS011;58108;48.094;11.838;2022-09-09T14:48:32;1.88;;;0.20;;
70558;SDS011;58108;48.094;11.838;2022-09-09T14:51:04;2.07;;;0.60;;
70558;SDS011;58108;48.094;11.838;2022-09-09T14:53:32;1.23;;;0.30;;
70558;SDS011;58108;48.094;11.838;2022-09-09T14:56:11;1.87;;;0.20;;
70558;SDS011;58108;48.094;11.838;2022-09-09T14:58:39;1.58;;;0.20;;
70558;SDS011;58108;48.094;11.838;2022-09-09T15:01:06;1.63;;;0.20;;
70558;SDS011;58108;48.094;11.838;2022-09-09T15:03:34;0.98;;;0.13;;
70558;SDS011;58108;48.094;11.838;2022-09-09T15:06:04;2.23;;;0.20;;
70558;SDS011;58108;48.094;11.838;2022-09-09T15:08:31;1.60;;;0.30;;
70558;SDS011;58108;48.094;11.838;2022-09-09T15:11:00;2.40;;;0.20;;
70558;SDS011;58108;48.094;11.838;2022-09-09T15:13:28;1.90;;;0.45;;
70558;SDS011;58108;48.094;11.838;2022-09-09T15:15:53;1.10;;;0.20;;
70558;SDS011;58108;48.094;11.838;2022-09-09T15:18:19;3.23;;;0.30;;
70558;SDS011;58108;48.094;11.838;2022-09-09T15:20:45;1.40;;;0.20;;
70558;SDS011;58108;48.094;11.838;2022-09-09T15:23:12;1.35;;;0.20;;
70558;SDS011;58108;48.094;11.838;2022-09-09T15:25:49;1.38;;;0.20;;
70558;SDS011;58108;48.094;11.838;2022-09-09T15:28:18;1.73;;;0.20;;
70558;SDS011;58108;48.094;11.838;2022-09-09T15:30:46;1.98;;;0.40;;
70558;SDS011;58108;48.094;11.838;2022-09-09T15:33:13;2.90;;;0.30;;
70558;SDS011;58108;48.094;11.838;2022-09-09T15:35:38;1.30;;;0.20;;
70558;SDS011;58108;48.094;11.838;2022-09-09T15:38:03;2.97;;;0.30;;
70558;SDS011;58108;48.094;11.838;2022-09-09T15:40:30;2.72;;;0.40;;
70558;SDS011;58108;48.094;11.838;2022-09-09T15:42:57;1.60;;;0.30;;
70558;SDS011;58108;48.094;11.838;2022-09-09T15:45:22;1.60;;;0.37;;
70558;SDS011;58108;48.094;11.838;2022-09-09T15:47:48;2.60;;;0.40;;
70558;SDS011;58108;48.094;11.838;2022-09-09T15:50:14;1.98;;;0.30;;
70558;SDS011;58108;48.094;11.838;2022-09-09T15:52:39;2.10;;;0.40;;
70558;SDS011;58108;48.094;11.838;2022-09-09T15:55:04;1.87;;;0.30;;
70558;SDS011;58108;48.094;11.838;2022-09-09T15:57:30;2.97;;;0.30;;
70558;SDS011;58108;48.094;11.838;2022-09-09T15:59:56;1.43;;;0.20;;
70558;SDS011;58108;48.094;11.838;2022-09-09T16:02:21;1.20;;;0.30;;
70558;SDS011;58108;48.094;11.838;2022-09-09T16:04:46;1.83;;;0.40;;
70558;SDS011;58108;48.094;11.838;2022-09-09T16:07:12;1.93;;;0.40;;
70558;SDS011;58108;48.094;11.838;2022-09-09T16:09:37;2.17;;;0.32;;
70558;SDS011;58108;48.094;11.838;2022-09-09T16:12:03;1.80;;;0.30;;
70558;SDS011;58108;48.094;11.838;2022-09-09T16:14:34;1.98;;;0.30;;
70558;SDS011;58108;48.094;11.838;2022-09-09T16:17:01;1.33;;;0.30;;
70558;SDS011;58108;48.094;11.838;2022-09-09T16:19:27;1.63;;;0.20;;
70558;SDS011;58108;48.094;11.838;2022-09-09T16:21:53;2.60;;;0.30;;
70558;SDS011;58108;48.094;11.838;2022-09-09T16:24:18;1.77;;;0.30;;
70558;SDS011;58108;48.094;11.838;2022-09-09T16:26:48;1.50;;;0.30;;
70558;SDS011;58108;48.094;11.838;2022-09-09T16:29:16;1.92;;;0.20;;
70558;SDS011;58108;48.094;11.838;2022-09-09T16:31:42;2.58;;;0.50;;
70558;SDS011;58108;48.094;11.838;2022-09-09T16:34:09;2.45;;;0.40;;
70558;SDS011;58108;48.094;11.838;2022-09-09T16:36:35;1.87;;;0.30;;
70558;SDS011;58108;48.094;11.838;2022-09-09T16:39:04;1.88;;;0.40;;
70558;SDS011;58108;48.094;11.838;2022-09-09T16:41:32;2.50;;;0.80;;